createdAt,value
2018-09-27T00:01:51.196Z,9.20
2018-09-27T00:06:46.142Z,9.37
2018-09-27T00:11:41.062Z,9.47
2018-09-27T00:16:35.969Z,9.54
2018-09-27T00:21:30.866Z,9.48
2018-09-27T00:26:25.761Z,9.25
2018-09-27T00:31:20.713Z,9.07
2018-09-27T00:36:15.638Z,9.17
2018-09-27T00:41:10.542Z,9.14
2018-09-27T00:46:05.509Z,9.25
2018-09-27T00:51:00.213Z,9.26
2018-09-27T00:55:55.613Z,9.21
2018-09-27T01:00:50.312Z,9.12
2018-09-27T01:05:45.147Z,9.14
2018-09-27T01:10:39.849Z,8.91
2018-09-27T01:15:34.581Z,8.82
2018-09-27T01:20:29.345Z,8.71
2018-09-27T01:25:24.079Z,8.81
2018-09-27T01:30:19.557Z,8.90
2018-09-27T01:35:14.272Z,8.87
2018-09-27T01:40:09.034Z,8.99
2018-09-27T01:45:03.791Z,8.92
2018-09-27T01:49:58.507Z,8.95
2018-09-27T01:54:53.250Z,8.83
2018-09-27T01:59:47.965Z,8.86
2018-09-27T02:04:42.677Z,8.92
2018-09-27T02:09:37.388Z,8.84
2018-09-27T02:14:32.096Z,9.03
2018-09-27T02:19:26.815Z,8.96
2018-09-27T02:24:21.582Z,9.05
2018-09-27T02:29:16.313Z,9.21
2018-09-27T02:34:11.023Z,9.35
2018-09-27T02:39:10.004Z,9.40
2018-09-27T02:44:04.782Z,9.35
2018-09-27T02:48:59.493Z,9.48
2018-09-27T02:53:54.222Z,9.55
2018-09-27T02:58:48.935Z,9.68
2018-09-27T03:03:43.705Z,9.75
2018-09-27T03:08:38.466Z,9.75
2018-09-27T03:13:33.229Z,9.77
2018-09-27T03:18:27.931Z,9.92
2018-09-27T03:23:22.682Z,9.99
2018-09-27T03:28:17.397Z,9.97
2018-09-27T03:33:12.180Z,9.96
2018-09-27T03:38:06.925Z,9.96
2018-09-27T03:43:01.637Z,10.00
2018-09-27T03:47:56.364Z,10.01
2018-09-27T03:52:51.084Z,10.10
2018-09-27T03:57:45.780Z,10.18
2018-09-27T04:02:40.551Z,10.27
2018-09-27T04:07:35.293Z,10.30
2018-09-27T04:12:29.992Z,10.42
2018-09-27T04:17:24.733Z,10.35
2018-09-27T04:22:19.571Z,10.38
2018-09-27T04:27:14.296Z,10.47
2018-09-27T04:32:09.029Z,10.44
2018-09-27T04:37:03.749Z,10.46
2018-09-27T04:41:58.471Z,10.51
2018-09-27T04:46:53.203Z,10.45
2018-09-27T04:51:47.984Z,10.37
2018-09-27T04:56:42.679Z,10.34
2018-09-27T05:01:37.429Z,10.32
2018-09-27T05:06:32.312Z,10.33
2018-09-27T05:11:26.981Z,10.25
2018-09-27T05:16:21.742Z,10.30
2018-09-27T05:21:16.473Z,10.36
2018-09-27T05:26:11.221Z,10.36
2018-09-27T05:31:06.009Z,10.45
2018-09-27T05:36:00.726Z,10.58
2018-09-27T05:40:55.477Z,10.52
2018-09-27T05:45:50.260Z,10.56
2018-09-27T05:50:44.990Z,10.68
2018-09-27T05:55:39.756Z,10.71
2018-09-27T06:00:34.670Z,10.62
2018-09-27T06:05:29.445Z,10.61
2018-09-27T06:10:24.194Z,10.58
2018-09-27T06:15:18.980Z,10.70
2018-09-27T06:20:13.720Z,10.78
2018-09-27T06:25:08.508Z,10.87
2018-09-27T06:30:03.370Z,10.87
2018-09-27T06:34:58.127Z,10.91
2018-09-27T06:39:52.846Z,11.10
2018-09-27T06:44:47.616Z,11.14
2018-09-27T06:49:42.361Z,11.09
2018-09-27T06:54:37.113Z,11.30
2018-09-27T06:59:31.868Z,11.37
2018-09-27T07:04:26.632Z,11.41
2018-09-27T07:09:21.429Z,11.45
2018-09-27T07:14:16.151Z,11.49
2018-09-27T07:19:11.082Z,11.43
2018-09-27T07:24:05.822Z,11.56
2018-09-27T07:29:01.644Z,11.65
2018-09-27T07:33:56.392Z,11.60
2018-09-27T07:38:51.173Z,11.74
2018-09-27T07:43:45.942Z,11.86
2018-09-27T07:48:40.741Z,11.83
2018-09-27T07:53:36.437Z,11.73
2018-09-27T07:58:31.171Z,11.86
2018-09-27T08:03:25.892Z,11.99
2018-09-27T08:08:20.646Z,12.14
2018-09-27T08:13:15.438Z,12.16
2018-09-27T08:18:10.208Z,12.40
2018-09-27T08:23:04.962Z,12.37
2018-09-27T08:27:59.714Z,12.41
2018-09-27T08:32:54.441Z,12.44
2018-09-27T08:37:49.229Z,12.58
2018-09-27T08:42:43.971Z,12.83
2018-09-27T08:47:38.785Z,13.00
2018-09-27T08:52:33.606Z,12.79
2018-09-27T08:57:28.436Z,12.74
2018-09-27T09:02:23.236Z,13.17
2018-09-27T09:07:18.066Z,13.19
2018-09-27T09:12:12.937Z,13.91
2018-09-27T09:17:07.734Z,14.84
2018-09-27T09:22:02.514Z,15.61
2018-09-27T09:26:57.328Z,15.18
2018-09-27T09:31:53.042Z,14.51
2018-09-27T09:36:47.825Z,14.87
2018-09-27T09:41:42.621Z,14.83
2018-09-27T09:46:37.520Z,14.40
2018-09-27T09:51:33.306Z,14.59
2018-09-27T09:56:28.251Z,15.05
2018-09-27T10:01:23.062Z,15.37
2018-09-27T10:06:17.861Z,15.70
2018-09-27T10:11:12.676Z,15.94
2018-09-27T10:16:07.484Z,16.06
2018-09-27T10:21:02.346Z,15.98
2018-09-27T10:25:57.141Z,15.97
2018-09-27T10:30:51.955Z,16.10
2018-09-27T10:35:46.967Z,16.37
2018-09-27T10:40:41.756Z,16.55
2018-09-27T10:45:36.662Z,16.65
2018-09-27T10:50:31.464Z,16.68
2018-09-27T10:55:26.283Z,16.90
2018-09-27T11:00:42.390Z,16.93
2018-09-27T11:05:53.774Z,16.98
2018-09-27T11:11:11.854Z,16.97
2018-09-27T11:26:51.450Z,17.43
2018-09-27T11:31:51.333Z,17.51
2018-09-27T11:36:46.149Z,17.61
2018-09-27T11:41:41.031Z,17.66
2018-09-27T11:46:35.794Z,17.82
2018-09-27T11:51:30.590Z,17.98
2018-09-27T11:56:25.451Z,18.04
2018-09-27T12:01:20.315Z,18.23
2018-09-27T12:06:15.134Z,18.46
2018-09-27T12:11:10.027Z,18.53
2018-09-27T14:36:27.620Z,19.25
2018-09-27T14:41:28.010Z,19.24
2018-09-27T15:10:13.183Z,19.37
2018-09-27T15:15:08.385Z,19.36
2018-09-27T15:20:03.430Z,19.40
2018-09-27T15:24:58.218Z,19.47
2018-09-27T15:29:53.051Z,19.61
2018-09-27T15:34:47.909Z,19.45
2018-09-27T15:39:42.707Z,19.37
2018-09-27T15:44:37.643Z,19.36
2018-09-27T15:49:32.525Z,19.26
2018-09-27T15:54:27.830Z,19.11
2018-09-27T15:59:22.698Z,18.89
2018-09-27T16:42:30.110Z,17.06
2018-09-27T17:29:54.054Z,15.70
2018-09-27T17:34:49.011Z,15.58
2018-09-27T17:39:43.868Z,15.52
2018-09-27T17:45:12.567Z,15.48
2018-09-27T18:01:27.355Z,15.12
2018-09-27T18:11:57.474Z,14.80
2018-09-27T18:27:56.835Z,14.54
2018-09-27T18:32:51.637Z,14.43
2018-09-27T18:37:46.539Z,14.37
2018-09-27T18:42:41.403Z,14.21
2018-09-27T18:47:36.266Z,14.22
2018-09-27T18:52:32.030Z,14.10
2018-09-27T18:57:26.947Z,14.15
2018-09-27T19:02:21.853Z,14.07
2018-09-27T19:07:16.733Z,14.02
2018-09-27T19:12:11.671Z,13.96
2018-09-27T19:17:06.858Z,13.62
2018-09-27T19:22:01.543Z,13.63
2018-09-27T19:26:56.397Z,13.64
2018-09-27T19:31:51.257Z,13.58
2018-09-27T19:36:46.182Z,13.44
2018-09-27T19:41:41.401Z,13.41
2018-09-27T19:46:36.348Z,13.43
2018-09-27T19:51:31.162Z,13.33
2018-09-27T19:56:26.021Z,13.19
2018-09-27T20:01:20.905Z,12.98
2018-09-27T20:06:15.761Z,13.06
2018-09-27T20:11:10.564Z,13.05
2018-09-27T20:16:05.495Z,12.88
2018-09-27T20:21:00.423Z,12.93
2018-09-27T20:25:55.277Z,13.03
2018-09-27T20:30:50.206Z,12.95
2018-09-27T20:35:45.082Z,12.74
2018-09-27T20:40:39.974Z,12.71
2018-09-27T20:45:34.965Z,12.58
2018-09-27T20:50:29.790Z,12.61
2018-09-27T20:55:24.619Z,12.62
2018-09-27T21:00:19.489Z,12.51
2018-09-27T21:05:14.318Z,12.37
2018-09-27T21:10:09.238Z,12.45
2018-09-27T21:15:04.109Z,12.35
2018-09-27T21:19:58.917Z,12.26
2018-09-27T21:24:53.775Z,12.17
2018-09-27T21:29:49.219Z,11.95
2018-09-27T21:34:44.023Z,12.03
2018-09-27T21:39:38.822Z,12.11
2018-09-27T21:44:33.767Z,12.02
2018-09-27T21:49:28.587Z,12.03
2018-09-27T21:54:23.570Z,12.13
2018-09-27T21:59:18.474Z,11.91
2018-09-27T22:04:13.331Z,12.06
2018-09-27T22:09:10.769Z,11.96
2018-09-27T22:14:05.679Z,11.88
2018-09-27T22:19:00.578Z,11.71
2018-09-27T22:23:56.030Z,11.76
2018-09-27T22:28:51.884Z,11.64
2018-09-27T22:33:47.787Z,11.58
2018-09-27T22:38:42.655Z,11.71
2018-09-27T22:43:37.477Z,11.71
2018-09-27T22:48:32.275Z,11.41
2018-09-27T22:53:27.031Z,11.44
2018-09-27T22:58:21.889Z,11.24
2018-09-27T23:03:16.921Z,11.14
2018-09-27T23:08:12.209Z,11.22
2018-09-27T23:13:06.982Z,11.15
2018-09-27T23:18:01.735Z,11.33
2018-09-27T23:22:56.569Z,11.24
2018-09-27T23:27:51.401Z,11.32
2018-09-27T23:32:46.165Z,11.26
2018-09-27T23:37:41.010Z,11.30
2018-09-27T23:42:36.335Z,11.11
2018-09-27T23:47:31.280Z,11.16
2018-09-27T23:52:26.185Z,11.01
2018-09-27T23:57:21.080Z,11.00
